createdAt,value
2023-01-18T00:00:37.255Z,18.08
2023-01-18T00:03:05.611Z,16.45
2023-01-18T00:05:39.840Z,13.45
2023-01-18T00:08:07.856Z,14.02
2023-01-18T00:10:37.889Z,14.20
2023-01-18T00:13:07.466Z,12.60
2023-01-18T00:15:35.991Z,8.68
2023-01-18T00:18:04.456Z,14.52
2023-01-18T00:20:32.894Z,10.70
2023-01-18T00:23:02.247Z,12.73
2023-01-18T00:25:31.245Z,12.05
2023-01-18T00:27:59.145Z,8.15
2023-01-18T00:30:29.566Z,13.02
2023-01-18T00:33:00.019Z,11.20
2023-01-18T00:35:28.675Z,8.30
2023-01-18T00:37:56.556Z,9.07
2023-01-18T00:40:28.304Z,19.00
2023-01-18T00:43:13.544Z,9.23
2023-01-18T00:45:43.178Z,7.50
2023-01-18T00:48:11.063Z,9.40
2023-01-18T00:50:39.178Z,10.32
2023-01-18T00:53:07.205Z,11.10
2023-01-18T00:55:35.159Z,8.43
2023-01-18T00:58:04.232Z,8.32
2023-01-18T01:00:32.816Z,9.68
2023-01-18T01:03:02.747Z,5.40
2023-01-18T01:05:48.070Z,9.15
2023-01-18T01:08:17.809Z,12.07
2023-01-18T01:10:47.199Z,5.65
2023-01-18T01:13:33.676Z,9.10
2023-01-18T01:16:23.622Z,11.15
2023-01-18T01:19:11.380Z,17.77
2023-01-18T01:21:57.251Z,9.52
2023-01-18T01:24:44.955Z,9.38
2023-01-18T01:27:13.821Z,8.82
2023-01-18T01:29:41.790Z,7.82
2023-01-18T01:32:09.807Z,8.68
2023-01-18T01:34:39.352Z,14.15
2023-01-18T01:37:07.523Z,9.60
2023-01-18T01:39:35.460Z,6.47
2023-01-18T01:42:03.423Z,14.10
2023-01-18T01:44:47.360Z,8.68
2023-01-18T01:47:42.058Z,12.15
2023-01-18T01:50:19.539Z,15.30
2023-01-18T01:52:48.749Z,8.93
2023-01-18T01:55:22.836Z,6.97
2023-01-18T01:57:56.200Z,9.10
2023-01-18T02:00:25.931Z,5.82
2023-01-18T02:02:57.309Z,7.75
2023-01-18T02:05:28.191Z,8.25
2023-01-18T02:08:00.182Z,6.25
2023-01-18T02:10:28.495Z,5.57
2023-01-18T02:12:58.736Z,5.90
2023-01-18T02:15:34.809Z,14.48
2023-01-18T02:18:13.693Z,5.95
2023-01-18T02:21:15.923Z,8.63
2023-01-18T02:24:21.295Z,7.95
2023-01-18T02:27:06.272Z,7.90
2023-01-18T02:29:55.088Z,13.57
2023-01-18T02:32:33.519Z,9.27
2023-01-18T02:35:10.043Z,9.98
2023-01-18T02:37:44.723Z,8.40
2023-01-18T02:40:20.255Z,7.65
2023-01-18T02:43:07.339Z,9.63
2023-01-18T02:45:59.043Z,8.00
2023-01-18T02:48:33.509Z,9.77
2023-01-18T02:51:01.472Z,7.68
2023-01-18T02:53:29.957Z,4.75
2023-01-18T02:56:02.229Z,8.20
2023-01-18T02:58:34.981Z,6.07
2023-01-18T03:01:07.812Z,5.22
2023-01-18T03:03:36.706Z,11.57
2023-01-18T03:06:09.100Z,13.75
2023-01-18T03:08:47.003Z,9.55
2023-01-18T03:11:19.063Z,5.55
2023-01-18T03:14:02.507Z,5.88
2023-01-18T03:16:41.388Z,5.90
2023-01-18T03:19:36.498Z,7.72
2023-01-18T03:22:05.707Z,8.98
2023-01-18T03:24:41.441Z,4.07
2023-01-18T03:27:27.792Z,5.65
2023-01-18T03:30:13.637Z,10.27
2023-01-18T03:33:00.831Z,8.65
2023-01-18T03:35:30.920Z,6.97
2023-01-18T03:38:00.117Z,5.55
2023-01-18T03:40:30.396Z,12.25
2023-01-18T03:43:04.492Z,8.32
2023-01-18T03:45:37.451Z,9.65
2023-01-18T03:48:09.188Z,7.60
2023-01-18T03:50:52.824Z,7.18
2023-01-18T03:53:32.559Z,6.10
2023-01-18T03:56:04.846Z,7.43
2023-01-18T03:58:37.223Z,7.82
2023-01-18T04:01:06.382Z,5.97
2023-01-18T04:03:37.143Z,9.38
2023-01-18T04:06:08.544Z,6.80
2023-01-18T04:08:36.455Z,10.48
2023-01-18T04:11:04.397Z,5.65
2023-01-18T04:13:33.401Z,5.43
2023-01-18T04:16:01.497Z,7.97
2023-01-18T04:18:29.444Z,5.28
2023-01-18T04:20:58.909Z,6.15
2023-01-18T04:23:26.948Z,6.57
2023-01-18T04:25:54.947Z,5.18
2023-01-18T04:28:27.094Z,5.50
2023-01-18T04:30:56.559Z,8.43
2023-01-18T04:33:26.816Z,5.18
2023-01-18T04:35:55.215Z,7.28
2023-01-18T04:38:24.603Z,6.68
2023-01-18T04:40:52.540Z,5.43
2023-01-18T04:43:20.536Z,6.85
2023-01-18T04:45:55.286Z,9.52
2023-01-18T04:48:26.415Z,5.25
2023-01-18T04:50:56.726Z,8.88
2023-01-18T04:53:26.104Z,4.18
2023-01-18T04:55:54.018Z,6.57
2023-01-18T04:58:21.919Z,11.38
2023-01-18T05:00:49.952Z,9.80
2023-01-18T05:03:17.850Z,11.50
2023-01-18T05:05:45.817Z,5.45
2023-01-18T05:08:13.723Z,7.97
2023-01-18T05:10:42.955Z,8.75
2023-01-18T05:13:10.849Z,4.40
2023-01-18T05:15:43.138Z,4.68
2023-01-18T05:18:11.113Z,7.82
2023-01-18T05:20:39.088Z,7.13
2023-01-18T05:23:11.028Z,7.25
2023-01-18T05:25:40.146Z,9.90
2023-01-18T05:28:10.342Z,10.38
2023-01-18T05:30:41.112Z,10.15
2023-01-18T05:33:09.481Z,7.40
2023-01-18T05:35:37.861Z,10.82
2023-01-18T05:38:05.937Z,8.50
2023-01-18T05:40:33.919Z,8.45
2023-01-18T05:43:01.883Z,6.95
2023-01-18T05:45:31.186Z,8.93
2023-01-18T05:47:59.782Z,6.65
2023-01-18T05:50:27.668Z,5.55
2023-01-18T05:52:55.621Z,12.65
2023-01-18T05:55:23.587Z,6.18
2023-01-18T05:57:51.483Z,13.90
2023-01-18T06:00:20.131Z,10.00
2023-01-18T06:02:49.356Z,11.18
2023-01-18T06:05:17.412Z,12.55
2023-01-18T06:07:45.281Z,7.03
2023-01-18T06:10:13.244Z,8.55
2023-01-18T06:12:41.465Z,7.72
2023-01-18T06:15:10.547Z,8.93
2023-01-18T06:17:39.119Z,14.20
2023-01-18T06:20:12.442Z,14.30
2023-01-18T06:22:40.725Z,9.80
2023-01-18T06:25:09.839Z,12.75
2023-01-18T06:27:39.376Z,8.13
2023-01-18T06:30:08.432Z,9.45
2023-01-18T06:32:36.274Z,12.75
2023-01-18T06:35:04.287Z,11.73
2023-01-18T06:37:33.501Z,8.93
2023-01-18T06:40:02.893Z,9.80
2023-01-18T06:42:30.878Z,9.93
2023-01-18T06:44:59.624Z,7.88
2023-01-18T06:47:27.551Z,9.02
2023-01-18T06:49:56.460Z,5.50
2023-01-18T06:52:24.430Z,6.82
2023-01-18T06:54:53.671Z,10.25
2023-01-18T06:57:21.533Z,10.05
2023-01-18T06:59:49.485Z,12.32
2023-01-18T07:02:17.489Z,10.43
2023-01-18T07:04:45.609Z,9.23
2023-01-18T07:07:19.346Z,8.25
2023-01-18T07:10:16.731Z,9.93
2023-01-18T07:12:48.825Z,8.45
2023-01-18T07:15:23.167Z,10.07
2023-01-18T07:17:52.569Z,9.60
2023-01-18T07:20:26.972Z,9.98
2023-01-18T07:22:55.424Z,8.70
2023-01-18T07:25:27.279Z,7.25
2023-01-18T07:27:58.013Z,11.32
2023-01-18T07:30:26.111Z,12.10
2023-01-18T07:32:54.662Z,11.00
2023-01-18T07:35:23.292Z,12.73
2023-01-18T07:37:54.087Z,13.80
2023-01-18T07:40:23.037Z,11.27
2023-01-18T07:42:58.095Z,19.25
2023-01-18T07:45:26.413Z,9.90
2023-01-18T07:47:54.353Z,7.78
2023-01-18T07:50:22.813Z,9.52
2023-01-18T07:52:51.803Z,12.80
2023-01-18T07:55:21.572Z,12.25
2023-01-18T07:57:49.614Z,13.25
2023-01-18T08:00:21.451Z,10.13
2023-01-18T08:02:51.568Z,10.75
2023-01-18T08:05:21.085Z,17.85
2023-01-18T08:07:49.876Z,12.60
2023-01-18T08:10:18.280Z,17.52
2023-01-18T08:12:46.205Z,9.93
2023-01-18T08:15:14.376Z,13.23
2023-01-18T08:17:43.681Z,15.75
2023-01-18T08:20:12.848Z,16.27
2023-01-18T08:22:40.715Z,14.43
2023-01-18T08:25:09.611Z,15.88
2023-01-18T08:27:38.787Z,14.52
2023-01-18T08:30:08.212Z,17.40
2023-01-18T08:32:36.149Z,21.73
2023-01-18T08:35:05.866Z,21.20
2023-01-18T08:37:33.901Z,20.10
2023-01-18T08:40:01.807Z,22.40
2023-01-18T08:42:29.687Z,21.52
2023-01-18T08:44:57.585Z,15.57
2023-01-18T08:47:25.559Z,15.43
2023-01-18T08:49:53.540Z,14.68
2023-01-18T08:52:22.924Z,15.13
2023-01-18T08:54:50.818Z,14.63
2023-01-18T08:57:18.722Z,15.43
2023-01-18T08:59:46.629Z,15.38
2023-01-18T09:02:14.700Z,9.60
2023-01-18T09:04:44.000Z,19.75
2023-01-18T09:07:11.912Z,21.75
2023-01-18T09:09:41.173Z,17.27
2023-01-18T09:12:09.106Z,14.05
2023-01-18T09:14:37.290Z,15.10
2023-01-18T09:17:05.593Z,15.10
2023-01-18T09:19:33.608Z,17.52
2023-01-18T09:22:01.583Z,16.25
2023-01-18T09:24:29.491Z,14.68
2023-01-18T09:26:58.784Z,15.55
2023-01-18T09:29:26.772Z,14.65
2023-01-18T09:31:55.989Z,14.88
2023-01-18T09:34:24.271Z,12.90
2023-01-18T09:36:53.243Z,11.40
2023-01-18T09:39:22.473Z,14.50
2023-01-18T09:41:53.661Z,17.42
2023-01-18T09:44:29.782Z,15.52
2023-01-18T09:47:01.008Z,21.20
2023-01-18T09:49:37.011Z,19.15
2023-01-18T09:52:23.527Z,18.08
2023-01-18T09:54:57.267Z,19.15
2023-01-18T09:57:40.735Z,20.13
2023-01-18T10:00:19.734Z,20.98
2023-01-18T10:02:53.167Z,15.63
2023-01-18T10:05:24.094Z,15.85
2023-01-18T10:08:03.700Z,12.65
2023-01-18T10:10:37.127Z,18.65
2023-01-18T10:13:23.000Z,15.18
2023-01-18T10:15:52.369Z,14.73
2023-01-18T10:18:20.897Z,15.30
2023-01-18T10:20:52.651Z,12.63
2023-01-18T10:23:31.284Z,13.73
2023-01-18T10:26:04.072Z,16.27
2023-01-18T10:28:41.889Z,16.73
2023-01-18T10:31:24.327Z,22.67
2023-01-18T10:33:56.956Z,20.92
2023-01-18T10:36:30.735Z,19.35
2023-01-18T10:39:00.977Z,17.98
2023-01-18T10:41:34.191Z,11.43
2023-01-18T10:44:02.952Z,14.07
2023-01-18T10:46:32.369Z,12.93
2023-01-18T10:49:00.437Z,16.77
2023-01-18T10:51:32.510Z,12.80
2023-01-18T10:54:00.495Z,13.13
2023-01-18T10:56:29.637Z,11.48
2023-01-18T10:59:00.133Z,15.73
2023-01-18T11:01:30.906Z,12.13
2023-01-18T11:04:06.004Z,13.45
2023-01-18T11:06:46.589Z,15.60
2023-01-18T11:09:40.178Z,13.32
2023-01-18T11:12:38.056Z,13.15
2023-01-18T11:15:28.796Z,12.23
2023-01-18T11:18:06.563Z,16.23
2023-01-18T11:20:43.522Z,24.33
2023-01-18T11:23:22.103Z,33.00
2023-01-18T11:25:57.457Z,31.17
2023-01-18T11:28:33.076Z,15.63
2023-01-18T11:31:09.439Z,17.60
2023-01-18T11:33:50.774Z,22.05
2023-01-18T11:36:22.274Z,29.00
2023-01-18T11:38:50.241Z,21.80
2023-01-18T11:41:21.817Z,41.58
2023-01-18T11:44:05.892Z,39.88
2023-01-18T11:46:44.276Z,18.70
2023-01-18T11:49:27.109Z,22.60
2023-01-18T11:52:02.131Z,18.15
2023-01-18T11:54:36.260Z,15.68
2023-01-18T11:57:04.726Z,16.67
2023-01-18T11:59:35.559Z,17.17
2023-01-18T12:02:31.408Z,19.50
2023-01-18T12:05:35.475Z,22.13
2023-01-18T12:08:38.212Z,15.90
2023-01-18T12:11:27.935Z,20.45
2023-01-18T12:14:01.627Z,17.02
2023-01-18T12:16:44.554Z,12.95
2023-01-18T12:19:34.221Z,13.43
2023-01-18T12:22:22.184Z,14.27
2023-01-18T12:25:07.164Z,11.40
2023-01-18T12:27:41.248Z,9.07
2023-01-18T12:30:31.256Z,12.52
2023-01-18T12:33:13.086Z,12.85
2023-01-18T12:36:03.261Z,9.73
2023-01-18T12:38:33.417Z,4.85
2023-01-18T12:41:31.876Z,10.55
2023-01-18T12:44:15.718Z,12.32
2023-01-18T12:46:50.887Z,8.48
2023-01-18T12:49:21.819Z,9.35
2023-01-18T12:52:03.114Z,11.43
2023-01-18T12:54:47.664Z,9.30
2023-01-18T12:57:17.646Z,7.15
2023-01-18T12:59:53.176Z,9.43
2023-01-18T13:02:32.003Z,9.93
2023-01-18T13:05:06.462Z,9.10
2023-01-18T13:07:40.265Z,10.10
2023-01-18T13:10:17.979Z,9.70
2023-01-18T13:12:48.099Z,7.10
2023-01-18T13:15:27.286Z,10.68
2023-01-18T13:18:02.674Z,11.07
2023-01-18T13:20:43.200Z,7.00
2023-01-18T13:23:21.643Z,5.65
2023-01-18T13:25:55.260Z,4.10
2023-01-18T13:28:27.003Z,6.72
2023-01-18T13:31:00.762Z,8.32
2023-01-18T13:33:32.622Z,5.97
2023-01-18T13:36:05.503Z,5.38
2023-01-18T13:38:41.677Z,4.65
2023-01-18T13:41:12.645Z,6.50
2023-01-18T13:44:05.762Z,3.97
2023-01-18T13:46:38.797Z,4.60
2023-01-18T13:49:37.818Z,4.75
2023-01-18T13:52:30.438Z,5.18
2023-01-18T13:55:04.154Z,4.55
2023-01-18T13:57:35.275Z,3.28
2023-01-18T14:00:07.318Z,2.90
2023-01-18T14:02:42.314Z,5.88
2023-01-18T14:05:25.132Z,3.85
2023-01-18T14:07:57.088Z,3.10
2023-01-18T14:10:30.381Z,5.60
2023-01-18T14:13:00.884Z,7.45
2023-01-18T14:15:40.760Z,4.28
2023-01-18T14:18:18.741Z,4.10
2023-01-18T14:20:55.043Z,3.70
2023-01-18T14:23:41.983Z,3.88
2023-01-18T14:26:12.398Z,3.88
2023-01-18T14:29:31.803Z,5.45
2023-01-18T14:32:03.170Z,3.65
2023-01-18T14:34:42.019Z,6.95
2023-01-18T14:37:28.648Z,3.33
2023-01-18T14:40:22.793Z,3.30
2023-01-18T14:42:53.976Z,2.53
2023-01-18T14:45:27.398Z,3.75
2023-01-18T14:47:59.225Z,2.88
2023-01-18T14:50:33.074Z,3.72
2023-01-18T14:53:01.818Z,2.45
2023-01-18T14:55:32.052Z,6.30
2023-01-18T14:58:12.990Z,4.93
2023-01-18T15:00:50.135Z,3.75
2023-01-18T15:03:26.220Z,3.70
2023-01-18T15:06:01.986Z,3.70
2023-01-18T15:08:34.203Z,3.45
2023-01-18T15:11:05.008Z,4.40
2023-01-18T15:13:35.676Z,4.60
2023-01-18T15:16:04.108Z,5.47
2023-01-18T15:18:33.472Z,4.38
2023-01-18T15:21:05.880Z,2.72
2023-01-18T15:23:37.754Z,5.38
2023-01-18T15:26:06.269Z,12.50
2023-01-18T15:28:35.320Z,10.50
2023-01-18T15:31:12.425Z,8.50
2023-01-18T15:33:42.837Z,4.85
2023-01-18T15:36:11.317Z,4.53
2023-01-18T15:38:40.453Z,6.53
2023-01-18T15:41:15.590Z,5.75
2023-01-18T15:43:45.380Z,4.93
2023-01-18T15:46:15.578Z,8.68
2023-01-18T15:48:50.503Z,4.20
2023-01-18T15:51:22.280Z,4.25
2023-01-18T15:53:56.259Z,4.38
2023-01-18T15:56:29.736Z,5.75
2023-01-18T15:59:01.820Z,4.07
2023-01-18T16:01:31.982Z,4.70
2023-01-18T16:04:19.559Z,3.58
2023-01-18T16:06:47.654Z,7.18
2023-01-18T16:09:21.469Z,5.65
2023-01-18T16:11:52.194Z,5.00
2023-01-18T16:14:24.606Z,7.35
2023-01-18T16:16:55.184Z,7.18
2023-01-18T16:19:29.413Z,7.50
2023-01-18T16:22:01.413Z,12.38
2023-01-18T16:24:37.753Z,8.75
2023-01-18T16:27:11.425Z,11.38
2023-01-18T16:29:45.733Z,14.90
2023-01-18T16:32:19.210Z,12.10
2023-01-18T16:34:48.923Z,12.05
2023-01-18T16:37:18.191Z,7.82
2023-01-18T16:39:46.594Z,9.20
2023-01-18T16:42:15.391Z,9.48
2023-01-18T16:44:46.977Z,10.85
2023-01-18T16:47:17.079Z,8.73
2023-01-18T16:49:45.948Z,10.80
2023-01-18T16:52:17.046Z,12.55
2023-01-18T16:54:56.156Z,14.63
2023-01-18T16:57:25.074Z,10.25
2023-01-18T16:59:55.646Z,9.20
2023-01-18T17:02:48.013Z,7.85
2023-01-18T17:06:07.372Z,8.88
2023-01-18T17:08:37.178Z,9.35
2023-01-18T17:11:05.970Z,10.27
2023-01-18T17:13:34.066Z,10.70
2023-01-18T17:16:02.236Z,13.20
2023-01-18T17:18:30.725Z,16.83
2023-01-18T17:21:13.043Z,15.15
2023-01-18T17:23:51.338Z,19.02
2023-01-18T17:26:19.482Z,23.23
2023-01-18T17:28:47.976Z,19.73
2023-01-18T17:31:16.585Z,13.75
2023-01-18T17:33:46.803Z,14.57
2023-01-18T17:36:14.880Z,11.65
2023-01-18T17:38:49.041Z,19.88
2023-01-18T17:41:26.816Z,17.60
2023-01-18T17:43:58.793Z,20.30
2023-01-18T17:46:27.075Z,26.13
2023-01-18T17:48:55.601Z,13.40
2023-01-18T17:51:25.416Z,13.20
2023-01-18T17:53:59.113Z,19.42
2023-01-18T17:56:28.258Z,18.35
2023-01-18T17:58:58.418Z,18.08
2023-01-18T18:01:29.202Z,13.98
2023-01-18T18:03:57.890Z,22.58
2023-01-18T18:06:31.413Z,16.55
2023-01-18T18:09:03.671Z,17.13
2023-01-18T18:11:32.194Z,16.02
2023-01-18T18:14:02.266Z,18.83
2023-01-18T18:16:34.433Z,12.63
2023-01-18T18:19:06.602Z,12.65
2023-01-18T18:21:36.993Z,12.57
2023-01-18T18:24:07.931Z,15.25
2023-01-18T18:26:36.022Z,20.75
2023-01-18T18:29:08.995Z,10.20
2023-01-18T18:31:38.856Z,15.40
2023-01-18T18:34:08.743Z,12.68
2023-01-18T18:36:37.988Z,14.38
2023-01-18T18:39:08.664Z,8.85
2023-01-18T18:41:37.079Z,9.20
2023-01-18T18:44:05.577Z,17.95
2023-01-18T18:46:33.851Z,8.73
2023-01-18T18:49:02.346Z,10.27
2023-01-18T18:51:30.603Z,10.55
2023-01-18T18:53:59.908Z,7.72
2023-01-18T18:56:29.922Z,13.80
2023-01-18T18:58:58.343Z,6.80
2023-01-18T19:01:30.478Z,12.85
2023-01-18T19:04:01.902Z,6.40
2023-01-18T19:06:30.041Z,17.15
2023-01-18T19:08:58.689Z,8.82
2023-01-18T19:11:27.187Z,10.05
2023-01-18T19:13:57.223Z,25.05
2023-01-18T19:16:25.497Z,9.27
2023-01-18T19:18:56.023Z,6.60
2023-01-18T19:21:24.986Z,4.53
2023-01-18T19:23:55.309Z,4.53
2023-01-18T19:26:23.437Z,17.90
2023-01-18T19:28:54.059Z,5.65
2023-01-18T19:31:29.209Z,6.25
2023-01-18T19:33:58.684Z,9.48
2023-01-18T19:36:28.047Z,10.70
2023-01-18T19:39:00.179Z,6.70
2023-01-18T19:41:30.243Z,14.65
2023-01-18T19:43:58.610Z,8.52
2023-01-18T19:46:30.518Z,5.38
2023-01-18T19:49:00.580Z,9.32
2023-01-18T19:51:28.967Z,8.80
2023-01-18T19:53:58.804Z,6.68
2023-01-18T19:56:29.101Z,3.78
2023-01-18T19:58:57.527Z,6.70
2023-01-18T20:01:36.256Z,11.30
2023-01-18T20:04:07.367Z,7.88
2023-01-18T20:06:38.737Z,6.82
2023-01-18T20:09:18.145Z,8.90
2023-01-18T20:11:47.995Z,2.78
2023-01-18T20:14:19.338Z,7.72
2023-01-18T20:16:47.806Z,3.83
2023-01-18T20:19:19.210Z,4.40
2023-01-18T20:21:47.828Z,4.72
2023-01-18T20:24:17.891Z,5.03
2023-01-18T20:26:46.173Z,8.52
2023-01-18T20:29:17.242Z,7.90
2023-01-18T20:31:50.067Z,5.35
2023-01-18T20:34:20.107Z,4.68
2023-01-18T20:36:50.063Z,4.22
2023-01-18T20:39:18.856Z,3.50
2023-01-18T20:41:48.742Z,4.70
2023-01-18T20:44:17.572Z,7.55
2023-01-18T20:46:47.416Z,4.05
2023-01-18T20:49:22.445Z,16.85
2023-01-18T20:51:52.629Z,6.40
2023-01-18T20:54:21.029Z,6.80
2023-01-18T20:56:49.343Z,11.35
2023-01-18T20:59:19.655Z,4.88
2023-01-18T21:01:47.911Z,5.70
2023-01-18T21:04:15.900Z,7.88
2023-01-18T21:06:46.536Z,9.85
2023-01-18T21:09:14.574Z,11.63
2023-01-18T21:11:42.713Z,8.15
2023-01-18T21:14:10.807Z,3.30
2023-01-18T21:16:38.823Z,4.28
2023-01-18T21:19:06.812Z,3.95
2023-01-18T21:21:35.994Z,3.45
2023-01-18T21:24:05.598Z,3.60
2023-01-18T21:26:34.195Z,9.00
2023-01-18T21:29:02.305Z,3.70
2023-01-18T21:31:30.370Z,8.02
2023-01-18T21:33:58.371Z,3.55
2023-01-18T21:36:26.297Z,3.45
2023-01-18T21:38:54.431Z,6.03
2023-01-18T21:41:42.453Z,3.00
2023-01-18T21:44:29.827Z,2.22
2023-01-18T21:46:58.800Z,3.58
2023-01-18T21:50:11.428Z,3.95
2023-01-18T21:52:49.585Z,6.85
2023-01-18T21:55:18.356Z,8.25
2023-01-18T21:58:08.269Z,3.85
2023-01-18T22:00:38.578Z,10.63
2023-01-18T22:03:07.246Z,4.20
2023-01-18T22:05:34.373Z,4.25
2023-01-18T22:08:02.694Z,2.78
2023-01-18T22:10:30.885Z,4.00
2023-01-18T22:13:00.302Z,2.75
2023-01-18T22:15:28.308Z,3.20
2023-01-18T22:17:56.598Z,13.48
2023-01-18T22:20:24.966Z,2.83
2023-01-18T22:22:54.319Z,4.50
2023-01-18T22:25:22.354Z,3.20
2023-01-18T22:27:50.312Z,5.95
2023-01-18T22:30:19.997Z,2.35
2023-01-18T22:32:47.994Z,5.30
2023-01-18T22:35:16.266Z,3.97
2023-01-18T22:37:44.262Z,2.47
2023-01-18T22:40:13.103Z,4.75
2023-01-18T22:42:41.103Z,10.40
2023-01-18T22:45:10.792Z,5.28
2023-01-18T22:47:40.169Z,4.70
2023-01-18T22:50:08.838Z,3.72
2023-01-18T22:52:36.786Z,2.88
2023-01-18T22:55:08.070Z,2.45
2023-01-18T22:57:36.185Z,6.85
2023-01-18T23:00:04.645Z,2.88
2023-01-18T23:02:34.284Z,3.42
2023-01-18T23:05:06.698Z,3.70
2023-01-18T23:07:34.666Z,8.18
2023-01-18T23:10:02.717Z,6.10
2023-01-18T23:12:30.894Z,5.10
2023-01-18T23:15:22.404Z,4.35
2023-01-18T23:17:52.787Z,4.47
2023-01-18T23:20:32.352Z,5.15
2023-01-18T23:23:00.759Z,5.95
2023-01-18T23:25:44.174Z,7.80
2023-01-18T23:28:45.046Z,3.13
2023-01-18T23:31:34.355Z,3.03
2023-01-18T23:34:03.409Z,6.72
2023-01-18T23:36:57.801Z,5.05
2023-01-18T23:43:33.015Z,11.38
2023-01-18T23:46:25.648Z,7.88
2023-01-18T23:49:58.512Z,11.93
2023-01-18T23:53:13.777Z,2.85
2023-01-18T23:55:44.449Z,10.57
2023-01-18T23:58:15.590Z,2.42
